Time;durP1;ratioP1;P1;durP2;ratioP2;P2;SDS_P1;SDS_P2;PMS_P1;PMS_P2;Temp;Humidity;BMP_temperature;BMP_pressure;BME280_temperature;BME280_humidity;BME280_pressure;Samples;Min_cycle;Max_cycle;Signal;HPM_P1;HPM_P2
2021/07/28 00:01:51;;;;;;;;;;;;;;;;;;2144134;59;1267;-67
2021/07/28 00:04:16;;;;;;;;;;;;;;;;;;2144929;66;1924;-67
2021/07/28 00:06:42;;;;;;;;;;;;;;;;;;2145000;66;1159;-67
2021/07/28 00:09:07;;;;;;;;;;;;;;;;;;2145245;66;1214;-67
2021/07/28 00:11:32;;;;;;;;;;;;;;;;;;2144752;66;1134;-65
2021/07/28 00:13:59;;;;;;;;;;;;;;;;;;2145282;66;1146;-66
2021/07/28 00:16:24;;;;;;;;;;;;;;;;;;2144854;66;1167;-66
2021/07/28 00:24:08;;;;;;;;;;;;;;;;;;2144502;59;1931;-66
2021/07/28 00:26:33;;;;;;;;;;;;;;;;;;2145263;66;1031;-66
2021/07/28 00:28:58;;;;;;;;;;;;;;;;;;2145164;59;1211;-68
2021/07/28 00:31:23;;;;;;;;;;;;;;;;;;2148685;53;3682;-69
2021/07/28 00:33:49;;;;;;;;;;;;;;;;;;2146325;58;1613;-69
2021/07/28 00:36:14;;;;;;;;;;;;;;;;;;2147434;58;1181;-68
2021/07/28 00:38:39;;;;;;;;;;;;;;;;;;2147200;59;1867;-69
2021/07/28 00:41:04;;;;;;;;;;;;;;;;;;2146871;66;1247;-69
2021/07/28 00:43:29;;;;;;;;;;;;;;;;;;2146744;66;1967;-69
2021/07/28 00:45:55;;;;;;;;;;;;;;;;;;2146851;66;1219;-68
2021/07/28 00:48:20;;;;;;;;;;;;;;;;;;2145722;59;1318;-68
2021/07/28 00:50:45;;;;;;;;;;;;;;;;;;2146020;59;1604;-67
2021/07/28 00:53:18;;;;;;;;;;;;;;;;;;2147222;66;1246;-68
2021/07/28 00:55:44;;;;;;;;;;;;;;;;;;2145709;66;1116;-68
2021/07/28 00:58:10;;;;;;;;;;;;;;;;;;2147042;66;1133;-68
2021/07/28 01:00:35;;;;;;;;;;;;;;;;;;2145331;66;1465;-67
2021/07/28 01:03:00;;;;;;;;;;;;;;;;;;2146486;59;1913;-67
2021/07/28 01:05:25;;;;;;;;;;;;;;;;;;2148083;58;1180;-67
2021/07/28 01:07:50;;;;;;;;;;;;;;;;;;2147279;66;1326;-67
2021/07/28 01:10:16;;;;;;;;;;;;;;;;;;2146341;66;1218;-67
2021/07/28 01:12:44;;;;;;;;;;;;;;;;;;2145072;66;1164;-67
2021/07/28 01:15:10;;;;;;;;;;;;;;;;;;2146102;66;1161;-67
2021/07/28 01:17:36;;;;;;;;;;;;;;;;;;2146763;66;1277;-68
2021/07/28 01:20:04;;;;;;;;;;;;;;;;;;2146667;66;1397;-68
2021/07/28 01:22:30;;;;;;;;;;;;;;;;;;2145907;66;1928;-67
2021/07/28 01:24:55;;;;;;;;;;;;;;;;;;2147162;66;1161;-68
2021/07/28 01:27:21;;;;;;;;;;;;;;;;;;2145386;66;1149;-68
2021/07/28 01:29:47;;;;;;;;;;;;;;;;;;2147182;66;1124;-69
2021/07/28 01:32:13;;;;;;;;;;;;;;;;;;2145070;58;1266;-69
2021/07/28 01:34:38;;;;;;;;;;;;;;;;;;2143944;66;1291;-69
2021/07/28 01:37:05;;;;;;;;;;;;;;;;;;2146022;66;1230;-69
2021/07/28 01:39:31;;;;;;;;;;;;;;;;;;2146458;66;1148;-69
2021/07/28 01:41:58;;;;;;;;;;;;;;;;;;2146018;66;1231;-69
2021/07/28 01:44:23;;;;;;;;;;;;;;;;;;2145149;66;1975;-70
2021/07/28 01:46:48;;;;;;;;;;;;;;;;;;2145068;66;1333;-70
2021/07/28 01:49:14;;;;;;;;;;;;;;;;;;2145177;59;1467;-70
2021/07/28 01:51:42;;;;;;;;;;;;;;;;;;2145729;66;1280;-69
2021/07/28 01:54:07;;;;;;;;;;;;;;;;;;2147222;66;1194;-70
2021/07/28 01:56:32;;;;;;;;;;;;;;;;;;2145320;66;1211;-70
2021/07/28 01:58:58;;;;;;;;;;;;;;;;;;2145116;66;1370;-70
2021/07/28 02:01:23;;;;;;;;;;;;;;;;;;2145266;59;1268;-70
2021/07/28 02:03:48;;;;;;;;;;;;;;;;;;2146110;66;1943;-70
2021/07/28 02:06:13;;;;;;;;;;;;;;;;;;2145739;59;1109;-70
2021/07/28 02:08:38;;;;;;;;;;;;;;;;;;2145703;66;1165;-71
2021/07/28 02:11:04;;;;;;;;;;;;;;;;;;2144512;66;1668;-70
2021/07/28 02:13:29;;;;;;;;;;;;;;;;;;2146310;66;1242;-72
2021/07/28 02:15:54;;;;;;;;;;;;;;;;;;2146308;66;1238;-69
2021/07/28 02:18:19;;;;;;;;;;;;;;;;;;2146387;59;1156;-71
2021/07/28 02:20:44;;;;;;;;;;;;;;;;;;2146364;66;1162;-70
2021/07/28 02:23:10;;;;;;;;;;;;;;;;;;2144974;66;1906;-71
2021/07/28 02:25:35;;;;;;;;;;;;;;;;;;2146568;66;1157;-70
2021/07/28 02:28:00;;;;;;;;;;;;;;;;;;2146003;66;1051;-71
2021/07/28 02:30:25;;;;;;;;;;;;;;;;;;2147137;58;1179;-71
2021/07/28 02:32:51;;;;;;;;;;;;;;;;;;2145344;66;1065;-70
2021/07/28 02:35:16;;;;;;;;;;;;;;;;;;2144804;66;1180;-71
2021/07/28 02:37:42;;;;;;;;;;;;;;;;;;2145544;66;1163;-71
2021/07/28 02:40:08;;;;;;;;;;;;;;;;;;2147153;66;1183;-71
2021/07/28 02:42:33;;;;;;;;;;;;;;;;;;2145716;66;1925;-71
2021/07/28 02:44:58;;;;;;;;;;;;;;;;;;2146924;66;1255;-71
2021/07/28 02:47:24;;;;;;;;;;;;;;;;;;2142729;59;1307;-71
2021/07/28 02:49:49;;;;;;;;;;;;;;;;;;2144672;59;1413;-70
2021/07/28 02:52:14;;;;;;;;;;;;;;;;;;2146480;66;1203;-71
2021/07/28 02:54:39;;;;;;;;;;;;;;;;;;2146332;66;1085;-72
2021/07/28 02:57:04;;;;;;;;;;;;;;;;;;2146480;66;1195;-71
2021/07/28 02:59:30;;;;;;;;;;;;;;;;;;2146126;66;1211;-71
2021/07/28 03:01:55;;;;;;;;;;;;;;;;;;2146659;59;1180;-71
2021/07/28 03:04:20;;;;;;;;;;;;;;;;;;2146545;66;1911;-71
2021/07/28 03:06:46;;;;;;;;;;;;;;;;;;2144792;66;1172;-71
2021/07/28 03:09:11;;;;;;;;;;;;;;;;;;2145867;66;1192;-72
2021/07/28 03:11:36;;;;;;;;;;;;;;;;;;2146980;66;1187;-72
2021/07/28 03:14:01;;;;;;;;;;;;;;;;;;2145280;66;1278;-72
2021/07/28 03:16:27;;;;;;;;;;;;;;;;;;2147255;66;1228;-71
2021/07/28 03:18:52;;;;;;;;;;;;;;;;;;2145363;66;1215;-70
2021/07/28 03:21:17;;;;;;;;;;;;;;;;;;2147074;66;1254;-71
2021/07/28 03:23:42;;;;;;;;;;;;;;;;;;2144414;66;1984;-72
2021/07/28 03:26:07;;;;;;;;;;;;;;;;;;2147079;66;1159;-72
2021/07/28 03:28:33;;;;;;;;;;;;;;;;;;2145652;66;1176;-71
2021/07/28 03:30:58;;;;;;;;;;;;;;;;;;2146738;59;1203;-72
2021/07/28 03:33:23;;;;;;;;;;;;;;;;;;2145106;66;1064;-71
2021/07/28 03:35:48;;;;;;;;;;;;;;;;;;2143892;66;1192;-70
2021/07/28 03:38:14;;;;;;;;;;;;;;;;;;2147067;66;1176;-71
2021/07/28 03:40:40;;;;;;;;;;;;;;;;;;2146933;66;1187;-72
2021/07/28 03:43:05;;;;;;;;;;;;;;;;;;2145994;66;1919;-71
2021/07/28 03:45:30;;;;;;;;;;;;;;;;;;2145938;66;1247;-71
2021/07/28 03:47:56;;;;;;;;;;;;;;;;;;2145304;59;1201;-71
2021/07/28 03:50:21;;;;;;;;;;;;;;;;;;2144746;59;1617;-71
2021/07/28 03:52:46;;;;;;;;;;;;;;;;;;2146119;66;1172;-72
2021/07/28 03:55:11;;;;;;;;;;;;;;;;;;2146296;66;1234;-71
2021/07/28 03:57:36;;;;;;;;;;;;;;;;;;2146149;66;1212;-73
2021/07/28 04:00:03;;;;;;;;;;;;;;;;;;2146410;66;1317;-71
2021/07/28 04:02:28;;;;;;;;;;;;;;;;;;2147105;59;1283;-71
2021/07/28 04:04:53;;;;;;;;;;;;;;;;;;2146300;66;1928;-71
2021/07/28 04:07:18;;;;;;;;;;;;;;;;;;2145330;66;1172;-70
2021/07/28 04:09:43;;;;;;;;;;;;;;;;;;2145188;66;1223;-71
2021/07/28 04:12:08;;;;;;;;;;;;;;;;;;2146372;66;1199;-70
2021/07/28 04:14:34;;;;;;;;;;;;;;;;;;2145716;66;1220;-71
2021/07/28 04:16:59;;;;;;;;;;;;;;;;;;2146299;66;1189;-71
2021/07/28 04:19:24;;;;;;;;;;;;;;;;;;2145850;66;1245;-71
2021/07/28 04:21:49;;;;;;;;;;;;;;;;;;2145910;66;1231;-71
2021/07/28 04:24:14;;;;;;;;;;;;;;;;;;2145820;66;1920;-72
2021/07/28 04:26:39;;;;;;;;;;;;;;;;;;2146876;66;1243;-71
2021/07/28 04:29:05;;;;;;;;;;;;;;;;;;2146075;66;1237;-71
2021/07/28 04:31:30;;;;;;;;;;;;;;;;;;2146803;59;1163;-72
2021/07/28 04:33:55;;;;;;;;;;;;;;;;;;2146648;66;1165;-71
2021/07/28 04:36:20;;;;;;;;;;;;;;;;;;2146977;66;1162;-70
2021/07/28 04:38:45;;;;;;;;;;;;;;;;;;2147204;66;1142;-70
2021/07/28 04:41:11;;;;;;;;;;;;;;;;;;2147087;66;1259;-70
2021/07/28 04:43:36;;;;;;;;;;;;;;;;;;2147165;66;1913;-70
2021/07/28 04:46:02;;;;;;;;;;;;;;;;;;2146936;66;1190;-71
2021/07/28 04:48:27;;;;;;;;;;;;;;;;;;2147110;59;1370;-71
2021/07/28 04:50:53;;;;;;;;;;;;;;;;;;2145404;66;1385;-72
2021/07/28 04:53:18;;;;;;;;;;;;;;;;;;2147051;66;2134;-70
2021/07/28 04:55:49;;;;;;;;;;;;;;;;;;2145820;66;1108;-71
2021/07/28 04:58:15;;;;;;;;;;;;;;;;;;2146973;66;1203;-72
2021/07/28 05:00:40;;;;;;;;;;;;;;;;;;2146919;59;1225;-71
2021/07/28 05:03:05;;;;;;;;;;;;;;;;;;2146950;66;1907;-71
2021/07/28 05:05:30;;;;;;;;;;;;;;;;;;2145949;66;1203;-71
2021/07/28 05:07:55;;;;;;;;;;;;;;;;;;2146498;66;1320;-72
2021/07/28 05:10:20;;;;;;;;;;;;;;;;;;2145889;66;1283;-71
2021/07/28 05:12:46;;;;;;;;;;;;;;;;;;2147184;66;1177;-71
2021/07/28 05:15:11;;;;;;;;;;;;;;;;;;2146099;66;1139;-71
2021/07/28 05:17:36;;;;;;;;;;;;;;;;;;2147046;66;1181;-70
2021/07/28 05:20:02;;;;;;;;;;;;;;;;;;2146090;59;1339;-71
2021/07/28 05:22:27;;;;;;;;;;;;;;;;;;2145991;66;1144;-71
2021/07/28 05:24:54;;;;;;;;;;;;;;;;;;2146300;66;1975;-71
2021/07/28 05:27:19;;;;;;;;;;;;;;;;;;2146374;66;1192;-72
2021/07/28 05:29:45;;;;;;;;;;;;;;;;;;2146502;66;1513;-72
2021/07/28 05:32:10;;;;;;;;;;;;;;;;;;2146401;59;1200;-72
2021/07/28 05:34:35;;;;;;;;;;;;;;;;;;2145136;66;1245;-71
2021/07/28 05:37:00;;;;;;;;;;;;;;;;;;2144442;59;1329;-72
2021/07/28 05:39:25;;;;;;;;;;;;;;;;;;2146352;66;1211;-71
2021/07/28 05:41:51;;;;;;;;;;;;;;;;;;2146460;66;1167;-71
2021/07/28 05:44:16;;;;;;;;;;;;;;;;;;2146632;66;1931;-70
2021/07/28 05:46:41;;;;;;;;;;;;;;;;;;2146920;59;1173;-71
2021/07/28 05:49:06;;;;;;;;;;;;;;;;;;2145558;59;1496;-70
2021/07/28 05:51:31;;;;;;;;;;;;;;;;;;2146584;66;1258;-71
2021/07/28 05:53:56;;;;;;;;;;;;;;;;;;2146478;66;1148;-71
2021/07/28 05:56:22;;;;;;;;;;;;;;;;;;2147568;66;1175;-72
2021/07/28 05:58:47;;;;;;;;;;;;;;;;;;2146289;66;1143;-71
2021/07/28 06:01:12;;;;;;;;;;;;;;;;;;2145541;59;1251;-71
2021/07/28 06:03:37;;;;;;;;;;;;;;;;;;2146778;66;1923;-71
2021/07/28 06:06:02;;;;;;;;;;;;;;;;;;2145447;66;1175;-70
2021/07/28 06:08:27;;;;;;;;;;;;;;;;;;2146694;66;1211;-71
2021/07/28 06:10:53;;;;;;;;;;;;;;;;;;2145927;66;1179;-70
2021/07/28 06:13:18;;;;;;;;;;;;;;;;;;2146647;66;1152;-72
2021/07/28 06:15:46;;;;;;;;;;;;;;;;;;2146051;66;1119;-71
2021/07/28 06:18:11;;;;;;;;;;;;;;;;;;2146683;66;1187;-70
2021/07/28 06:20:36;;;;;;;;;;;;;;;;;;2146410;66;1214;-71
2021/07/28 06:23:02;;;;;;;;;;;;;;;;;;2147051;66;1982;-71
2021/07/28 06:25:27;;;;;;;;;;;;;;;;;;2146394;66;1195;-70
2021/07/28 06:27:52;;;;;;;;;;;;;;;;;;2145630;66;1235;-69
2021/07/28 06:30:17;;;;;;;;;;;;;;;;;;2146945;58;1152;-70
2021/07/28 06:32:43;;;;;;;;;;;;;;;;;;2147337;59;1879;-67
2021/07/28 06:35:08;;;;;;;;;;;;;;;;;;2142655;58;1436;-66
2021/07/28 06:37:34;;;;;;;;;;;;;;;;;;2143199;66;1367;-66
2021/07/28 06:39:59;;;;;;;;;;;;;;;;;;2143485;59;1163;-65
2021/07/28 06:42:24;;;;;;;;;;;;;;;;;;2141471;66;1291;-64
2021/07/28 06:44:49;;;;;;;;;;;;;;;;;;2142676;66;1927;-64
2021/07/28 06:47:15;;;;;;;;;;;;;;;;;;2141851;59;1151;-64
2021/07/28 06:49:40;;;;;;;;;;;;;;;;;;2141687;59;1222;-64
2021/07/28 06:52:05;;;;;;;;;;;;;;;;;;2140942;67;1204;-65
2021/07/28 06:54:31;;;;;;;;;;;;;;;;;;2142708;59;1223;-64
2021/07/28 06:56:56;;;;;;;;;;;;;;;;;;2141468;66;1192;-65
2021/07/28 06:59:21;;;;;;;;;;;;;;;;;;2142788;66;1210;-63
2021/07/28 07:01:46;;;;;;;;;;;;;;;;;;2141419;59;1381;-66
2021/07/28 07:04:11;;;;;;;;;;;;;;;;;;2142578;66;1976;-65
2021/07/28 07:06:37;;;;;;;;;;;;;;;;;;2142421;59;1269;-65
2021/07/28 07:09:02;;;;;;;;;;;;;;;;;;2142372;59;1252;-65
2021/07/28 07:11:27;;;;;;;;;;;;;;;;;;2142519;59;1277;-65
2021/07/28 07:13:52;;;;;;;;;;;;;;;;;;2141332;59;1911;-66
2021/07/28 07:16:18;;;;;;;;;;;;;;;;;;2141152;66;1271;-66
2021/07/28 07:18:43;;;;;;;;;;;;;;;;;;2140140;67;1137;-66
2021/07/28 07:21:08;;;;;;;;;;;;;;;;;;2141233;66;1279;-66
2021/07/28 07:23:33;;;;;;;;;;;;;;;;;;2140424;59;1928;-66
2021/07/28 07:25:58;;;;;;;;;;;;;;;;;;2140549;67;1262;-66
2021/07/28 07:28:25;;;;;;;;;;;;;;;;;;2142848;67;1376;-66
2021/07/28 07:30:50;;;;;;;;;;;;;;;;;;2139661;59;2128;-66
2021/07/28 07:36:18;;;;;;;;;;;;;;;;;;2135690;59;1673;-66
2021/07/28 07:38:44;;;;;;;;;;;;;;;;;;2137480;59;2053;-66
2021/07/28 07:41:09;;;;;;;;;;;;;;;;;;2138865;59;2315;-66
2021/07/28 07:43:34;;;;;;;;;;;;;;;;;;2140668;67;1925;-66
2021/07/28 07:45:59;;;;;;;;;;;;;;;;;;2140162;59;1767;-66
2021/07/28 07:48:25;;;;;;;;;;;;;;;;;;2141324;67;1243;-66
2021/07/28 07:50:51;;;;;;;;;;;;;;;;;;2140338;59;1636;-66
2021/07/28 07:53:16;;;;;;;;;;;;;;;;;;2140423;59;2301;-66
2021/07/28 07:55:41;;;;;;;;;;;;;;;;;;2134873;59;2569;-66
2021/07/28 07:58:06;;;;;;;;;;;;;;;;;;2134697;59;2431;-66
2021/07/28 08:00:31;;;;;;;;;;;;;;;;;;2135588;59;2428;-66
2021/07/28 08:02:57;;;;;;;;;;;;;;;;;;2139269;59;2031;-67
2021/07/28 08:05:22;;;;;;;;;;;;;;;;;;2140247;59;1197;-66
2021/07/28 08:07:47;;;;;;;;;;;;;;;;;;2141167;66;1275;-66
2021/07/28 08:10:12;;;;;;;;;;;;;;;;;;2143073;66;1100;-66
2021/07/28 08:12:38;;;;;;;;;;;;;;;;;;2143207;66;1271;-67
2021/07/28 08:15:03;;;;;;;;;;;;;;;;;;2142013;66;1235;-67
2021/07/28 08:17:28;;;;;;;;;;;;;;;;;;2141846;66;1177;-67
2021/07/28 08:19:53;;;;;;;;;;;;;;;;;;2139280;59;2003;-66
2021/07/28 08:22:19;;;;;;;;;;;;;;;;;;2139078;67;1300;-65
2021/07/28 08:24:44;;;;;;;;;;;;;;;;;;2140794;67;1925;-66
2021/07/28 08:27:09;;;;;;;;;;;;;;;;;;2140645;66;1342;-65
2021/07/28 08:29:34;;;;;;;;;;;;;;;;;;2140654;62;2413;-66
2021/07/28 08:31:59;;;;;;;;;;;;;;;;;;2139720;59;2374;-66
2021/07/28 08:34:25;;;;;;;;;;;;;;;;;;2138429;66;1234;-66
2021/07/28 08:36:50;;;;;;;;;;;;;;;;;;2141065;67;1499;-66
2021/07/28 08:39:15;;;;;;;;;;;;;;;;;;2140276;67;1240;-66
2021/07/28 08:41:41;;;;;;;;;;;;;;;;;;2142745;66;1531;-66
2021/07/28 08:44:07;;;;;;;;;;;;;;;;;;2140710;66;1927;-67
2021/07/28 08:46:33;;;;;;;;;;;;;;;;;;2140244;66;1582;-66
2021/07/28 08:48:58;;;;;;;;;;;;;;;;;;2140374;67;1388;-66
2021/07/28 08:51:27;;;;;;;;;;;;;;;;;;2140980;67;1262;-66
2021/07/28 08:53:52;;;;;;;;;;;;;;;;;;2140887;66;1143;-66
2021/07/28 08:56:18;;;;;;;;;;;;;;;;;;2141060;66;989;-65
2021/07/28 08:58:43;;;;;;;;;;;;;;;;;;2140726;66;2345;-65
2021/07/28 09:01:08;;;;;;;;;;;;;;;;;;2140989;59;1236;-65
2021/07/28 09:03:34;;;;;;;;;;;;;;;;;;2141744;66;1992;-65
2021/07/28 09:06:01;;;;;;;;;;;;;;;;;;2139776;66;1192;-65
2021/07/28 09:08:31;;;;;;;;;;;;;;;;;;2142077;66;1145;-65
2021/07/28 09:11:00;;;;;;;;;;;;;;;;;;2142131;66;1263;-65
2021/07/28 09:13:29;;;;;;;;;;;;;;;;;;2142457;66;1062;-64
2021/07/28 09:15:56;;;;;;;;;;;;;;;;;;2141981;66;1199;-65
2021/07/28 09:18:29;;;;;;;;;;;;;;;;;;2141033;66;1226;-65
2021/07/28 09:20:54;;;;;;;;;;;;;;;;;;2141037;66;1263;-66
2021/07/28 09:23:20;;;;;;;;;;;;;;;;;;2139983;66;1998;-65
2021/07/28 09:25:52;;;;;;;;;;;;;;;;;;2140299;59;1309;-66
2021/07/28 09:28:19;;;;;;;;;;;;;;;;;;2141020;66;1526;-66
2021/07/28 09:30:44;;;;;;;;;;;;;;;;;;2139502;59;2488;-66
2021/07/28 09:33:10;;;;;;;;;;;;;;;;;;2138725;59;2384;-65
2021/07/28 09:35:54;;;;;;;;;;;;;;;;;;2140428;66;1506;-65
2021/07/28 09:38:25;;;;;;;;;;;;;;;;;;2140809;66;1699;-65
2021/07/28 09:40:50;;;;;;;;;;;;;;;;;;2142505;66;1202;-65
2021/07/28 09:43:15;;;;;;;;;;;;;;;;;;2141773;66;1932;-65
2021/07/28 09:45:41;;;;;;;;;;;;;;;;;;2140910;67;1164;-65
2021/07/28 09:48:06;;;;;;;;;;;;;;;;;;2142525;66;1216;-65
2021/07/28 09:50:32;;;;;;;;;;;;;;;;;;2141964;59;1630;-68
2021/07/28 09:53:07;;;;;;;;;;;;;;;;;;2141481;59;1255;-67
2021/07/28 09:55:33;;;;;;;;;;;;;;;;;;2141228;59;1157;-65
2021/07/28 09:57:59;;;;;;;;;;;;;;;;;;2141160;66;1134;-65
2021/07/28 10:00:28;;;;;;;;;;;;;;;;;;2141550;66;1292;-65
2021/07/28 10:02:56;;;;;;;;;;;;;;;;;;2140713;59;1919;-65
2021/07/28 10:05:22;;;;;;;;;;;;;;;;;;2141859;66;1234;-69
2021/07/28 10:07:51;;;;;;;;;;;;;;;;;;2141576;59;1210;-65
2021/07/28 10:10:18;;;;;;;;;;;;;;;;;;2141373;66;1814;-65
2021/07/28 10:12:44;;;;;;;;;;;;;;;;;;2139905;59;2631;-64
2021/07/28 10:15:09;;;;;;;;;;;;;;;;;;2141236;66;1059;-65
2021/07/28 10:17:37;;;;;;;;;;;;;;;;;;2142720;66;1231;-65
2021/07/28 10:20:03;;;;;;;;;;;;;;;;;;2142534;66;1160;-65
2021/07/28 10:22:28;;;;;;;;;;;;;;;;;;2143560;66;1180;-65
2021/07/28 10:24:53;;;;;;;;;;;;;;;;;;2142329;66;1923;-65
2021/07/28 10:27:19;;;;;;;;;;;;;;;;;;2142522;66;1162;-65
2021/07/28 10:29:44;;;;;;;;;;;;;;;;;;2142692;66;1158;-65
2021/07/28 10:32:27;;;;;;;;;;;;;;;;;;2142822;59;1191;-65
2021/07/28 10:34:52;;;;;;;;;;;;;;;;;;2142564;66;1124;-65
2021/07/28 10:37:28;;;;;;;;;;;;;;;;;;2143335;66;1167;-65
2021/07/28 10:39:53;;;;;;;;;;;;;;;;;;2142779;66;1172;-65
2021/07/28 10:42:30;;;;;;;;;;;;;;;;;;2143423;66;1255;-65
2021/07/28 10:44:59;;;;;;;;;;;;;;;;;;2142568;66;1917;-64
2021/07/28 10:47:40;;;;;;;;;;;;;;;;;;2142660;66;1142;-65
2021/07/28 10:52:49;;;;;;;;;;;;;;;;;;2142547;59;1200;-65
2021/07/28 10:55:15;;;;;;;;;;;;;;;;;;2142546;66;1266;-65
2021/07/28 10:57:46;;;;;;;;;;;;;;;;;;2142593;66;1057;-65
2021/07/28 11:00:13;;;;;;;;;;;;;;;;;;2141836;66;1180;-65
2021/07/28 11:02:56;;;;;;;;;;;;;;;;;;2142228;59;1236;-63
2021/07/28 11:05:23;;;;;;;;;;;;;;;;;;2141216;59;1184;-65
2021/07/28 11:08:04;;;;;;;;;;;;;;;;;;2142218;66;1328;-64
2021/07/28 11:10:30;;;;;;;;;;;;;;;;;;2141500;66;1661;-65
2021/07/28 11:12:56;;;;;;;;;;;;;;;;;;2142373;66;1248;-65
2021/07/28 11:15:21;;;;;;;;;;;;;;;;;;2139634;59;1914;-65
2021/07/28 11:17:51;;;;;;;;;;;;;;;;;;2139292;59;1921;-65
2021/07/28 11:20:27;;;;;;;;;;;;;;;;;;2137161;59;2362;-64
2021/07/28 11:22:52;;;;;;;;;;;;;;;;;;2139655;67;1937;-65
2021/07/28 11:25:17;;;;;;;;;;;;;;;;;;2141420;66;1550;-65
2021/07/28 11:28:02;;;;;;;;;;;;;;;;;;2141704;67;1598;-65
2021/07/28 11:30:27;;;;;;;;;;;;;;;;;;2140083;59;3514;-64
2021/07/28 11:32:52;;;;;;;;;;;;;;;;;;2140272;59;1829;-65
2021/07/28 11:35:18;;;;;;;;;;;;;;;;;;2142637;67;1539;-65
2021/07/28 11:37:44;;;;;;;;;;;;;;;;;;2141399;67;1485;-65
2021/07/28 11:40:09;;;;;;;;;;;;;;;;;;2142026;66;1563;-66
2021/07/28 11:42:34;;;;;;;;;;;;;;;;;;2142043;59;1675;-65
2021/07/28 11:44:59;;;;;;;;;;;;;;;;;;2141790;66;1970;-66
2021/07/28 11:47:25;;;;;;;;;;;;;;;;;;2144237;59;1448;-66
2021/07/28 11:50:00;;;;;;;;;;;;;;;;;;2141019;59;1628;-66
2021/07/28 11:52:26;;;;;;;;;;;;;;;;;;2141474;66;1483;-66
2021/07/28 11:54:51;;;;;;;;;;;;;;;;;;2140323;67;2242;-68
2021/07/28 11:57:17;;;;;;;;;;;;;;;;;;2142751;66;1615;-66
2021/07/28 11:59:42;;;;;;;;;;;;;;;;;;2142520;62;1667;-68
2021/07/28 12:02:17;;;;;;;;;;;;;;;;;;2140518;59;1516;-69
2021/07/28 12:04:46;;;;;;;;;;;;;;;;;;2142287;66;1968;-68
2021/07/28 12:07:12;;;;;;;;;;;;;;;;;;2142765;66;1506;-64
2021/07/28 12:09:37;;;;;;;;;;;;;;;;;;2142879;66;1419;-67
2021/07/28 12:12:03;;;;;;;;;;;;;;;;;;2141329;66;1713;-70
2021/07/28 12:14:42;;;;;;;;;;;;;;;;;;2143667;66;1709;-68
2021/07/28 12:17:08;;;;;;;;;;;;;;;;;;2142482;66;1378;-68
2021/07/28 12:19:35;;;;;;;;;;;;;;;;;;2141582;66;2056;-67
2021/07/28 12:22:02;;;;;;;;;;;;;;;;;;2141523;66;1743;-67
2021/07/28 12:24:31;;;;;;;;;;;;;;;;;;2142520;66;1987;-69
2021/07/28 12:27:16;;;;;;;;;;;;;;;;;;2141088;66;1609;-67
2021/07/28 12:29:55;;;;;;;;;;;;;;;;;;2141494;59;2074;-69
2021/07/28 12:32:20;;;;;;;;;;;;;;;;;;2142611;59;2396;-66
2021/07/28 12:34:45;;;;;;;;;;;;;;;;;;2142505;59;1748;-69
2021/07/28 12:37:17;;;;;;;;;;;;;;;;;;2142450;59;1492;-68
2021/07/28 12:39:42;;;;;;;;;;;;;;;;;;2142468;66;1590;-69
2021/07/28 12:42:07;;;;;;;;;;;;;;;;;;2142491;59;1562;-68
2021/07/28 12:44:32;;;;;;;;;;;;;;;;;;2142001;66;1979;-67
2021/07/28 12:46:57;;;;;;;;;;;;;;;;;;2143356;66;1471;-69
2021/07/28 12:49:23;;;;;;;;;;;;;;;;;;2142348;59;1736;-69
2021/07/28 12:51:48;;;;;;;;;;;;;;;;;;2141682;66;1842;-68
2021/07/28 12:54:13;;;;;;;;;;;;;;;;;;2142904;66;1499;-70
2021/07/28 12:56:38;;;;;;;;;;;;;;;;;;2143506;66;1634;-69
2021/07/28 12:59:07;;;;;;;;;;;;;;;;;;2143420;66;1353;-68
2021/07/28 13:01:32;;;;;;;;;;;;;;;;;;2142751;59;1554;-69
2021/07/28 13:03:57;;;;;;;;;;;;;;;;;;2140751;66;2191;-69
2021/07/28 13:06:24;;;;;;;;;;;;;;;;;;2140944;59;2173;-70
2021/07/28 13:08:49;;;;;;;;;;;;;;;;;;2141586;66;1503;-70
2021/07/28 13:11:14;;;;;;;;;;;;;;;;;;2142983;66;1842;-70
2021/07/28 13:13:40;;;;;;;;;;;;;;;;;;2141713;66;1472;-68
2021/07/28 13:16:05;;;;;;;;;;;;;;;;;;2143688;66;1469;-70
2021/07/28 13:18:30;;;;;;;;;;;;;;;;;;2142234;66;1543;-69
2021/07/28 13:20:55;;;;;;;;;;;;;;;;;;2142727;66;1526;-70
2021/07/28 13:23:21;;;;;;;;;;;;;;;;;;2138612;59;2368;-66
2021/07/28 13:25:46;;;;;;;;;;;;;;;;;;2138173;59;2260;-68
2021/07/28 13:28:12;;;;;;;;;;;;;;;;;;2139845;66;1784;-70
2021/07/28 13:30:37;;;;;;;;;;;;;;;;;;2140356;66;1859;-69
2021/07/28 13:33:03;;;;;;;;;;;;;;;;;;2140489;67;1648;-70
2021/07/28 13:35:28;;;;;;;;;;;;;;;;;;2138743;59;3258;-69
2021/07/28 13:37:53;;;;;;;;;;;;;;;;;;2140595;66;1940;-69
2021/07/28 13:40:19;;;;;;;;;;;;;;;;;;2142365;66;1533;-70
2021/07/28 13:42:45;;;;;;;;;;;;;;;;;;2142636;66;1565;-70
2021/07/28 13:45:11;;;;;;;;;;;;;;;;;;2140460;67;1933;-69
2021/07/28 13:47:39;;;;;;;;;;;;;;;;;;2140460;66;1497;-69
2021/07/28 13:50:05;;;;;;;;;;;;;;;;;;2139808;59;1927;-68
2021/07/28 13:52:30;;;;;;;;;;;;;;;;;;2140040;66;1867;-69
2021/07/28 13:54:55;;;;;;;;;;;;;;;;;;2139198;59;1954;-69
2021/07/28 13:57:21;;;;;;;;;;;;;;;;;;2139510;66;1642;-69
2021/07/28 13:59:47;;;;;;;;;;;;;;;;;;2139931;66;1902;-68
2021/07/28 14:02:13;;;;;;;;;;;;;;;;;;2140724;59;2003;-68
2021/07/28 14:04:39;;;;;;;;;;;;;;;;;;2139400;66;2264;-68
2021/07/28 14:07:04;;;;;;;;;;;;;;;;;;2140614;66;1667;-68
2021/07/28 14:09:29;;;;;;;;;;;;;;;;;;2140088;59;1561;-70
2021/07/28 14:11:55;;;;;;;;;;;;;;;;;;2140643;67;1980;-69
2021/07/28 14:14:20;;;;;;;;;;;;;;;;;;2141054;66;1688;-67
2021/07/28 14:16:45;;;;;;;;;;;;;;;;;;2141561;66;1888;-69
2021/07/28 14:19:13;;;;;;;;;;;;;;;;;;2141548;66;1805;-70
2021/07/28 14:21:38;;;;;;;;;;;;;;;;;;2140460;66;2363;-68
2021/07/28 14:24:03;;;;;;;;;;;;;;;;;;2141043;66;1983;-69
2021/07/28 14:26:28;;;;;;;;;;;;;;;;;;2140747;66;1767;-67
2021/07/28 14:28:54;;;;;;;;;;;;;;;;;;2140979;66;1553;-69
2021/07/28 14:31:19;;;;;;;;;;;;;;;;;;2140586;59;1900;-68
2021/07/28 14:33:44;;;;;;;;;;;;;;;;;;2139960;67;2220;-69
2021/07/28 14:36:09;;;;;;;;;;;;;;;;;;2139903;60;3428;-66
2021/07/28 14:38:34;;;;;;;;;;;;;;;;;;2139863;67;3093;-67
2021/07/28 14:40:59;;;;;;;;;;;;;;;;;;2141152;66;1881;-67
2021/07/28 14:43:25;;;;;;;;;;;;;;;;;;2142199;66;1933;-64
2021/07/28 14:45:50;;;;;;;;;;;;;;;;;;2139497;67;1994;-68
2021/07/28 14:48:15;;;;;;;;;;;;;;;;;;2141803;59;1757;-66
2021/07/28 14:50:40;;;;;;;;;;;;;;;;;;2140586;59;1858;-69
2021/07/28 14:53:05;;;;;;;;;;;;;;;;;;2141262;66;1483;-66
2021/07/28 14:55:31;;;;;;;;;;;;;;;;;;2141746;66;1477;-69
2021/07/28 14:57:56;;;;;;;;;;;;;;;;;;2141553;66;1463;-69
2021/07/28 15:00:21;;;;;;;;;;;;;;;;;;2141954;66;1478;-68
2021/07/28 15:02:46;;;;;;;;;;;;;;;;;;2140910;59;1779;-67
2021/07/28 15:05:12;;;;;;;;;;;;;;;;;;2141218;66;1933;-66
2021/07/28 15:07:37;;;;;;;;;;;;;;;;;;2139971;67;1472;-69
2021/07/28 15:10:02;;;;;;;;;;;;;;;;;;2141044;66;1576;-66
2021/07/28 15:12:27;;;;;;;;;;;;;;;;;;2140605;66;2323;-68
2021/07/28 15:14:52;;;;;;;;;;;;;;;;;;2140373;66;1660;-68
2021/07/28 15:17:18;;;;;;;;;;;;;;;;;;2141140;66;1727;-66
2021/07/28 15:19:43;;;;;;;;;;;;;;;;;;2140091;67;1843;-66
2021/07/28 15:22:08;;;;;;;;;;;;;;;;;;2140502;59;1863;-68
2021/07/28 15:24:33;;;;;;;;;;;;;;;;;;2139957;59;2147;-68
2021/07/28 15:26:59;;;;;;;;;;;;;;;;;;2139560;59;2283;-69
2021/07/28 15:29:24;;;;;;;;;;;;;;;;;;2140799;67;1658;-66
2021/07/28 15:31:50;;;;;;;;;;;;;;;;;;2141063;59;1633;-69
2021/07/28 15:34:17;;;;;;;;;;;;;;;;;;2142291;66;1517;-67
2021/07/28 15:36:42;;;;;;;;;;;;;;;;;;2138474;66;3139;-68
2021/07/28 15:39:07;;;;;;;;;;;;;;;;;;2139760;67;3792;-69
2021/07/28 15:41:33;;;;;;;;;;;;;;;;;;2139792;67;1644;-67
2021/07/28 15:43:59;;;;;;;;;;;;;;;;;;2140081;59;2654;-68
2021/07/28 15:46:24;;;;;;;;;;;;;;;;;;2140497;67;1937;-69
2021/07/28 15:48:49;;;;;;;;;;;;;;;;;;2140146;59;1664;-68
2021/07/28 15:51:15;;;;;;;;;;;;;;;;;;2140013;67;2559;-68
2021/07/28 15:53:40;;;;;;;;;;;;;;;;;;2140596;67;1042;-69
2021/07/28 15:56:05;;;;;;;;;;;;;;;;;;2140083;67;1197;-68
2021/07/28 15:58:30;;;;;;;;;;;;;;;;;;2141186;67;1163;-68
2021/07/28 16:00:56;;;;;;;;;;;;;;;;;;2140223;59;1471;-68
2021/07/28 16:03:21;;;;;;;;;;;;;;;;;;2140294;67;1990;-69
2021/07/28 16:05:46;;;;;;;;;;;;;;;;;;2140941;67;1151;-68
2021/07/28 16:08:11;;;;;;;;;;;;;;;;;;2140375;67;1281;-68
2021/07/28 16:10:36;;;;;;;;;;;;;;;;;;2140516;67;1199;-68
2021/07/28 16:13:02;;;;;;;;;;;;;;;;;;2141630;67;1175;-68
2021/07/28 16:15:30;;;;;;;;;;;;;;;;;;2140414;67;1056;-69
2021/07/28 16:17:57;;;;;;;;;;;;;;;;;;2140888;67;1054;-69
2021/07/28 16:20:23;;;;;;;;;;;;;;;;;;2138879;59;1765;-68
2021/07/28 16:22:51;;;;;;;;;;;;;;;;;;2139730;67;1679;-66
2021/07/28 16:25:17;;;;;;;;;;;;;;;;;;2139694;67;1928;-68
2021/07/28 16:27:42;;;;;;;;;;;;;;;;;;2139770;67;1361;-68
2021/07/28 16:30:08;;;;;;;;;;;;;;;;;;2140593;66;1115;-68
2021/07/28 16:32:33;;;;;;;;;;;;;;;;;;2141424;59;1133;-67
2021/07/28 16:34:58;;;;;;;;;;;;;;;;;;2140226;66;2006;-68
2021/07/28 16:37:23;;;;;;;;;;;;;;;;;;2140479;59;2381;-68
2021/07/28 16:39:48;;;;;;;;;;;;;;;;;;2139506;59;2334;-69
2021/07/28 16:42:13;;;;;;;;;;;;;;;;;;2141164;66;1301;-69
2021/07/28 16:44:38;;;;;;;;;;;;;;;;;;2142463;66;1934;-70
2021/07/28 16:47:04;;;;;;;;;;;;;;;;;;2140996;59;1226;-68
2021/07/28 16:49:29;;;;;;;;;;;;;;;;;;2140302;59;1722;-69
2021/07/28 16:51:54;;;;;;;;;;;;;;;;;;2142884;66;1608;-70
2021/07/28 16:54:19;;;;;;;;;;;;;;;;;;2142221;66;1253;-70
2021/07/28 16:56:45;;;;;;;;;;;;;;;;;;2142928;66;1145;-70
2021/07/28 16:59:10;;;;;;;;;;;;;;;;;;2141379;66;1175;-70
2021/07/28 17:01:35;;;;;;;;;;;;;;;;;;2141418;59;1220;-69
2021/07/28 17:04:00;;;;;;;;;;;;;;;;;;2142021;66;1928;-70
2021/07/28 17:06:26;;;;;;;;;;;;;;;;;;2140491;67;1388;-70